Time;durP1;ratioP1;P1;durP2;ratioP2;P2;SDS_P1;SDS_P2;PMS_P1;PMS_P2;Temp;Humidity;BMP_temperature;BMP_pressure;BME280_temperature;BME280_humidity;BME280_pressure;Samples;Min_cycle;Max_cycle;Signal;HPM_P1;HPM_P2
2021/05/16 00:00:30;;;;;;;6.63;1.50;;;;;;;10.14;78.32;98957.81;5087858;28;20105;-50
2021/05/16 00:02:57;;;;;;;4.40;1.58;;;;;;;10.08;78.52;98962.88;5108316;28;20048;-49
2021/05/16 00:05:27;;;;;;;2.70;1.60;;;;;;;10.06;78.58;98964.44;5097392;28;20061;-49
2021/05/16 00:07:54;;;;;;;7.38;2.67;;;;;;;10.05;78.54;98966.41;5083519;28;20082;-49
2021/05/16 00:10:24;;;;;;;5.35;2.65;;;;;;;10.04;78.60;98958.47;5100988;28;20126;-47
2021/05/16 00:12:52;;;;;;;4.63;2.38;;;;;;;10.01;78.74;98951.75;5112192;28;20039;-48
2021/05/16 00:15:20;;;;;;;5.55;2.70;;;;;;;9.97;78.90;98953.72;5108144;28;20083;-47
2021/05/16 00:17:47;;;;;;;8.52;2.42;;;;;;;9.94;79.00;98953.69;5099389;28;20106;-49
2021/05/16 00:20:19;;;;;;;3.38;2.15;;;;;;;9.94;78.96;98946.19;5101661;28;20046;-47
2021/05/16 00:22:47;;;;;;;3.42;1.95;;;;;;;9.94;79.10;98954.47;5110207;28;20094;-49
2021/05/16 00:25:16;;;;;;;5.32;2.33;;;;;;;9.91;79.12;98949.72;5101957;28;20083;-48
2021/05/16 00:27:43;;;;;;;4.50;1.63;;;;;;;9.92;79.31;98940.25;5087714;28;20070;-51
2021/05/16 00:30:13;;;;;;;14.90;4.20;;;;;;;10.00;79.30;98946.63;5110311;28;20083;-48
2021/05/16 00:32:41;;;;;;;3.70;1.85;;;;;;;10.09;79.00;98942.31;5074567;28;20102;-49
2021/05/16 00:35:10;;;;;;;6.22;2.65;;;;;;;10.09;78.87;98944.28;5084688;28;20092;-53
2021/05/16 00:37:37;;;;;;;5.38;2.58;;;;;;;10.05;79.05;98938.75;5099347;28;20390;-49
2021/05/16 00:40:05;;;;;;;4.50;2.35;;;;;;;10.01;79.27;98935.16;5092214;28;20123;-51
2021/05/16 00:42:32;;;;;;;6.22;3.40;;;;;;;10.03;79.15;98929.25;5080447;28;20058;-50
2021/05/16 00:45:05;;;;;;;4.97;2.30;;;;;;;10.02;79.57;98930.44;5096038;28;20058;-48
2021/05/16 00:47:33;;;;;;;3.47;2.00;;;;;;;10.07;79.47;98930.88;5097666;28;20036;-48
2021/05/16 00:50:00;;;;;;;3.17;2.00;;;;;;;10.05;79.49;98930.47;5091300;28;20131;-48
2021/05/16 00:52:27;;;;;;;6.72;3.13;;;;;;;10.07;79.65;98935.59;5094251;28;20542;-51
2021/05/16 00:54:56;;;;;;;8.27;4.15;;;;;;;10.06;79.79;98929.25;5093224;28;20078;-48
2021/05/16 00:57:25;;;;;;;5.53;2.63;;;;;;;10.07;79.85;98936.38;5091447;28;20443;-49
2021/05/16 00:59:52;;;;;;;10.55;3.67;;;;;;;10.05;79.95;98916.63;5108130;28;20113;-48
2021/05/16 01:02:19;;;;;;;5.82;2.17;;;;;;;10.04;79.94;98926.09;5099792;28;20056;-49
2021/05/16 01:04:46;;;;;;;9.20;3.03;;;;;;;10.06;80.04;98925.72;5092917;28;20109;-49
2021/05/16 01:07:13;;;;;;;4.57;2.97;;;;;;;10.12;79.85;98927.75;5099825;28;20052;-47
2021/05/16 01:09:39;;;;;;;3.45;2.55;;;;;;;10.16;79.50;98920.28;5090583;28;20096;-48
2021/05/16 01:12:07;;;;;;;6.13;2.33;;;;;;;10.19;79.56;98915.97;5111903;28;20074;-52
2021/05/16 01:14:45;;;;;;;5.55;2.63;;;;;;;10.17;79.69;98915.53;5099425;28;20040;-50
2021/05/16 01:17:12;;;;;;;4.50;2.50;;;;;;;10.13;79.84;98918.28;5100551;28;20139;-50
2021/05/16 01:19:41;;;;;;;4.25;1.70;;;;;;;10.16;79.93;98930.56;5091588;28;20493;-53
2021/05/16 01:22:08;;;;;;;5.30;2.35;;;;;;;10.21;79.77;98931.00;5071365;28;20090;-48
2021/05/16 01:24:38;;;;;;;4.40;1.90;;;;;;;10.18;79.82;98928.19;5086739;28;20106;-49
2021/05/16 01:27:12;;;;;;;10.27;2.60;;;;;;;10.13;79.93;98923.81;5103139;28;20083;-50
2021/05/16 01:29:41;;;;;;;5.10;2.50;;;;;;;10.12;79.98;98921.41;5095384;28;20481;-50
2021/05/16 01:32:11;;;;;;;4.60;2.60;;;;;;;10.11;79.98;98926.13;5096912;28;20512;-50
2021/05/16 01:34:41;;;;;;;2.92;1.27;;;;;;;10.11;79.81;98925.38;5111038;28;20050;-49
2021/05/16 01:37:11;;;;;;;4.63;2.33;;;;;;;10.05;79.91;98922.16;5111507;28;20571;-49
2021/05/16 01:39:40;;;;;;;5.10;1.92;;;;;;;9.98;79.78;98933.16;5115476;28;20405;-51
2021/05/16 01:42:10;;;;;;;3.67;3.05;;;;;;;9.88;79.89;98922.84;5094889;28;20049;-49
2021/05/16 01:44:42;;;;;;;6.05;2.45;;;;;;;9.87;79.77;98921.25;5095718;28;20474;-47
2021/05/16 01:47:09;;;;;;;5.53;2.42;;;;;;;9.85;79.71;98923.59;5084762;28;20040;-49
2021/05/16 01:49:39;;;;;;;3.13;2.33;;;;;;;9.79;79.48;98925.16;5094343;28;20142;-48
2021/05/16 01:52:08;;;;;;;10.10;4.40;;;;;;;9.74;79.38;98922.75;5098779;28;20405;-50
2021/05/16 01:54:35;;;;;;;6.55;3.80;;;;;;;9.66;79.46;98919.13;5095027;28;20068;-49
2021/05/16 01:57:04;;;;;;;10.23;3.05;;;;;;;9.54;79.64;98913.91;5094804;28;20122;-50
2021/05/16 01:59:35;;;;;;;6.35;3.00;;;;;;;9.48;79.99;98915.44;5092933;28;20752;-50
2021/05/16 02:02:07;;;;;;;10.98;3.83;;;;;;;9.47;80.00;98921.34;5092452;28;20055;-47
2021/05/16 02:04:34;;;;;;;7.25;3.47;;;;;;;9.45;80.10;98916.19;5080816;28;20493;-50
2021/05/16 02:07:01;;;;;;;7.13;3.13;;;;;;;9.41;80.24;98914.56;5106379;28;20047;-49
2021/05/16 02:09:28;;;;;;;8.63;4.03;;;;;;;9.39;80.23;98905.88;5103443;28;20087;-50
2021/05/16 02:11:55;;;;;;;4.90;2.53;;;;;;;9.37;80.23;98902.72;5094902;28;20469;-50
2021/05/16 02:14:28;;;;;;;5.07;2.88;;;;;;;9.31;80.29;98913.31;5105549;28;20440;-49
2021/05/16 02:16:57;;;;;;;4.85;2.47;;;;;;;9.27;80.30;98903.41;5083486;28;20052;-49
2021/05/16 02:19:24;;;;;;;5.53;2.10;;;;;;;9.23;80.33;98902.59;5089111;28;20404;-49
2021/05/16 02:21:55;;;;;;;5.15;2.70;;;;;;;9.21;80.29;98900.22;5067852;28;20095;-47
2021/05/16 02:24:23;;;;;;;5.85;2.75;;;;;;;9.18;80.32;98899.00;5095047;28;20127;-50
2021/05/16 02:26:54;;;;;;;5.93;2.90;;;;;;;9.17;80.38;98893.84;5085863;28;20351;-48
2021/05/16 02:29:20;;;;;;;5.75;2.30;;;;;;;9.16;80.67;98900.53;5094449;28;20044;-47
2021/05/16 02:31:47;;;;;;;6.82;2.47;;;;;;;9.15;80.53;98902.53;5100141;28;20083;-48
2021/05/16 02:34:17;;;;;;;3.05;2.22;;;;;;;9.12;80.61;98900.53;5083501;28;20135;-47
2021/05/16 02:36:45;;;;;;;6.43;2.53;;;;;;;9.10;80.66;98897.34;5092272;28;20055;-47
2021/05/16 02:39:12;;;;;;;9.18;2.70;;;;;;;9.08;80.71;98902.44;5094048;28;20130;-48
2021/05/16 02:41:39;;;;;;;3.28;2.17;;;;;;;9.07;80.73;98902.84;5099456;28;20471;-49
2021/05/16 02:44:07;;;;;;;4.03;2.25;;;;;;;9.05;80.75;98905.97;5109047;28;20500;-48
2021/05/16 02:46:34;;;;;;;2.90;1.92;;;;;;;9.01;80.81;98896.06;5086418;28;20068;-48
2021/05/16 02:49:03;;;;;;;3.95;2.10;;;;;;;9.02;80.66;98903.97;5094700;28;20071;-50
2021/05/16 02:51:29;;;;;;;5.90;2.20;;;;;;;8.99;80.53;98899.22;5091737;28;20044;-48
2021/05/16 02:53:56;;;;;;;6.22;2.05;;;;;;;8.95;80.64;98898.38;5113482;28;20109;-50
2021/05/16 02:56:23;;;;;;;2.45;1.70;;;;;;;8.92;80.65;98901.88;5097484;28;20087;-54
2021/05/16 02:58:50;;;;;;;2.38;2.03;;;;;;;8.89;80.68;98896.34;5093394;28;20044;-50
2021/05/16 03:01:17;;;;;;;4.13;2.20;;;;;;;8.86;80.65;98902.63;5112177;28;20083;-50
2021/05/16 03:03:43;;;;;;;4.38;1.98;;;;;;;8.83;80.57;98893.13;5109030;28;20048;-52
2021/05/16 03:06:17;;;;;;;4.22;1.98;;;;;;;8.81;80.64;98886.41;5096434;28;20036;-51
2021/05/16 03:08:44;;;;;;;5.22;2.20;;;;;;;8.80;80.74;98891.13;5093062;28;20078;-49
2021/05/16 03:11:12;;;;;;;2.65;1.77;;;;;;;8.80;80.66;98896.66;5072945;28;20049;-50
2021/05/16 03:13:39;;;;;;;2.42;1.55;;;;;;;8.77;80.55;98891.88;5099450;28;20116;-47
2021/05/16 03:16:06;;;;;;;3.22;1.67;;;;;;;8.73;80.79;98891.06;5106321;28;20043;-50
2021/05/16 03:18:33;;;;;;;7.63;2.45;;;;;;;8.70;80.67;98891.81;5112598;28;20138;-51
2021/05/16 03:21:00;;;;;;;2.33;1.58;;;;;;;8.69;80.74;98895.72;5092405;28;20134;-52
2021/05/16 03:23:26;;;;;;;4.25;2.20;;;;;;;8.66;80.74;98890.97;5106360;28;20051;-48
2021/05/16 03:25:58;;;;;;;3.85;1.88;;;;;;;8.66;80.64;98890.97;5092606;28;20067;-49
2021/05/16 03:28:24;;;;;;;5.53;2.67;;;;;;;8.62;80.60;98895.66;5092272;28;20039;-51
2021/05/16 03:30:52;;;;;;;3.38;1.95;;;;;;;8.62;80.57;98895.66;5078495;28;20044;-46
2021/05/16 03:33:18;;;;;;;4.63;2.72;;;;;;;8.64;80.53;98892.50;5103192;28;20075;-50
2021/05/16 03:35:45;;;;;;;3.42;2.00;;;;;;;8.60;80.35;98891.69;5106367;28;20127;-54
2021/05/16 03:38:12;;;;;;;4.15;2.22;;;;;;;8.55;80.55;98890.06;5113138;28;20043;-54
2021/05/16 03:40:39;;;;;;;2.88;2.10;;;;;;;8.53;80.49;98882.16;5106033;28;20040;-52
2021/05/16 03:43:06;;;;;;;2.40;1.88;;;;;;;8.53;80.18;98884.13;5072219;28;20078;-49
2021/05/16 03:45:33;;;;;;;3.92;2.28;;;;;;;8.47;80.32;98877.38;5084911;28;20466;-53
2021/05/16 03:48:01;;;;;;;3.30;1.98;;;;;;;8.45;80.25;98874.19;5072177;28;20539;-54
2021/05/16 03:50:28;;;;;;;3.83;2.45;;;;;;;8.43;80.27;98885.59;5087169;28;20083;-52
2021/05/16 03:52:55;;;;;;;6.93;2.92;;;;;;;8.40;80.43;98882.78;5108562;28;20093;-52
2021/05/16 03:55:21;;;;;;;5.15;2.58;;;;;;;8.37;80.32;98878.00;5102088;28;20044;-52
2021/05/16 03:57:51;;;;;;;6.32;2.67;;;;;;;8.38;80.22;98874.09;5090499;28;20143;-49
2021/05/16 04:00:22;;;;;;;5.28;3.15;;;;;;;8.38;79.99;98880.41;5105145;28;20068;-49
2021/05/16 04:02:49;;;;;;;3.65;3.17;;;;;;;8.41;79.77;98873.34;5102859;28;20123;-51
2021/05/16 04:05:16;;;;;;;5.45;3.33;;;;;;;8.46;79.80;98875.78;5096724;28;20118;-51
2021/05/16 04:07:43;;;;;;;6.05;2.80;;;;;;;8.47;79.49;98875.38;5108441;28;20044;-50
2021/05/16 04:10:13;;;;;;;6.78;3.22;;;;;;;8.37;79.74;98878.00;5105812;28;20051;-51
2021/05/16 04:12:40;;;;;;;7.10;2.75;;;;;;;8.28;79.97;98883.03;5107848;28;20078;-50
2021/05/16 04:15:07;;;;;;;4.13;2.63;;;;;;;8.27;80.04;98873.19;5090888;28;20521;-50
2021/05/16 04:17:34;;;;;;;4.97;3.17;;;;;;;8.22;79.98;98890.81;5071395;28;20080;-51
2021/05/16 04:20:02;;;;;;;5.88;2.60;;;;;;;8.16;80.18;98888.75;5094035;28;20075;-49
2021/05/16 04:22:29;;;;;;;6.82;2.97;;;;;;;8.14;80.35;98896.59;5112343;28;20134;-51
2021/05/16 04:24:59;;;;;;;7.47;2.90;;;;;;;8.16;80.22;98888.75;5096742;28;20093;-48
2021/05/16 04:27:26;;;;;;;2.83;2.60;;;;;;;8.13;80.24;98875.75;5091721;28;20105;-51
2021/05/16 04:29:53;;;;;;;6.00;2.55;;;;;;;8.10;80.22;98885.53;5098967;28;20515;-48
2021/05/16 04:32:19;;;;;;;4.10;3.20;;;;;;;8.09;80.22;98894.19;5086244;28;20076;-49
2021/05/16 04:34:46;;;;;;;5.80;3.42;;;;;;;8.09;80.12;98886.72;5092060;28;20036;-48
2021/05/16 04:37:13;;;;;;;5.97;3.03;;;;;;;8.12;79.60;98893.44;5112193;28;20122;-46
2021/05/16 04:39:42;;;;;;;6.93;4.65;;;;;;;8.09;79.77;98891.41;5091589;28;20493;-48
2021/05/16 04:42:09;;;;;;;7.20;2.90;;;;;;;8.08;79.70;98903.59;5092054;28;20040;-46
2021/05/16 04:44:36;;;;;;;6.80;2.90;;;;;;;8.04;79.89;98897.25;5108605;28;20060;-47
2021/05/16 04:47:03;;;;;;;4.00;3.03;;;;;;;8.02;79.85;98899.59;5094573;28;20205;-47
2021/05/16 04:49:29;;;;;;;3.58;3.05;;;;;;;8.01;79.94;98898.00;5083880;28;20102;-49
2021/05/16 04:51:56;;;;;;;5.13;2.50;;;;;;;8.02;80.05;98900.41;5104911;28;20126;-47
2021/05/16 04:54:23;;;;;;;6.78;3.05;;;;;;;8.07;79.71;98907.53;5097780;28;20374;-49
2021/05/16 04:56:50;;;;;;;7.75;2.55;;;;;;;8.09;79.67;98905.19;5091565;28;20127;-49
2021/05/16 04:59:17;;;;;;;7.60;3.33;;;;;;;8.11;79.67;98908.38;5091394;28;20072;-48
2021/05/16 05:01:44;;;;;;;5.82;3.28;;;;;;;8.12;79.52;98902.50;5099647;28;20036;-48
2021/05/16 05:04:11;;;;;;;5.38;3.03;;;;;;;8.11;79.80;98902.84;5102668;28;20092;-46
2021/05/16 05:06:38;;;;;;;5.07;3.80;;;;;;;8.10;80.14;98912.31;5087839;28;20076;-51
2021/05/16 05:09:05;;;;;;;3.25;2.42;;;;;;;8.17;80.19;98906.88;5104171;28;20028;-48
2021/05/16 05:11:33;;;;;;;6.15;3.58;;;;;;;8.23;80.07;98914.47;5091054;28;20071;-48
2021/05/16 05:14:00;;;;;;;4.63;2.95;;;;;;;8.28;80.58;98913.38;5102933;28;20802;-47
2021/05/16 05:16:27;;;;;;;4.05;3.30;;;;;;;8.38;80.25;98913.50;5110943;28;20059;-47
2021/05/16 05:18:54;;;;;;;6.18;3.55;;;;;;;8.42;80.16;98921.81;5075242;28;20762;-50
2021/05/16 05:21:21;;;;;;;8.52;4.20;;;;;;;8.44;80.50;98905.69;5082198;28;20436;-46
2021/05/16 05:23:48;;;;;;;5.90;2.90;;;;;;;8.54;80.69;98910.53;5096157;28;20116;-50
2021/05/16 05:26:17;;;;;;;4.03;2.90;;;;;;;8.64;80.51;98920.91;5100176;28;20048;-46
2021/05/16 05:28:44;;;;;;;7.57;3.83;;;;;;;8.78;80.51;98915.56;5075954;28;20040;-47
2021/05/16 05:31:11;;;;;;;8.35;3.50;;;;;;;8.86;80.46;98917.22;5072613;28;20044;-47
2021/05/16 05:33:38;;;;;;;7.25;3.97;;;;;;;8.95;80.90;98914.94;5096971;28;20134;-47
2021/05/16 05:36:07;;;;;;;5.65;3.45;;;;;;;9.10;80.93;98913.91;5102318;28;20079;-46
2021/05/16 05:38:34;;;;;;;6.53;3.90;;;;;;;9.20;80.69;98917.94;5104633;28;20035;-47
2021/05/16 05:41:01;;;;;;;8.68;3.78;;;;;;;9.25;80.81;98908.50;5075833;28;20066;-49
2021/05/16 05:43:28;;;;;;;4.95;3.50;;;;;;;9.35;80.86;98916.91;5089964;28;20040;-47
2021/05/16 05:45:54;;;;;;;5.05;2.63;;;;;;;9.45;80.74;98918.94;5092308;28;20040;-50
2021/05/16 05:48:21;;;;;;;5.88;3.80;;;;;;;9.52;80.77;98918.22;5091054;28;20047;-49
2021/05/16 05:50:49;;;;;;;9.73;4.18;;;;;;;9.59;80.81;98921.03;5106977;28;20138;-50
2021/05/16 05:53:16;;;;;;;4.90;3.35;;;;;;;9.64;81.00;98918.72;5106855;28;20079;-50
2021/05/16 05:55:43;;;;;;;7.35;3.50;;;;;;;9.69;81.04;98909.25;5107582;28;20146;-48
2021/05/16 05:58:10;;;;;;;7.07;3.40;;;;;;;9.77;81.16;98910.91;5091897;28;20056;-47
2021/05/16 06:00:37;;;;;;;6.10;3.70;;;;;;;9.85;81.37;98911.78;5100015;28;20043;-47
2021/05/16 06:03:03;;;;;;;6.47;3.15;;;;;;;9.93;81.39;98916.94;5106247;28;20043;-49
2021/05/16 06:05:30;;;;;;;5.75;2.90;;;;;;;10.03;81.45;98913.47;5094892;28;20140;-51
2021/05/16 06:07:57;;;;;;;6.43;4.57;;;;;;;10.11;81.50;98915.06;5097152;28;20092;-49
2021/05/16 06:10:25;;;;;;;8.85;3.30;;;;;;;10.16;81.60;98911.19;5087850;28;20135;-47
2021/05/16 06:12:52;;;;;;;5.03;2.90;;;;;;;10.22;81.59;98921.50;5080851;28;20054;-50
2021/05/16 06:15:22;;;;;;;7.00;3.38;;;;;;;10.31;81.60;98908.13;5077939;28;20048;-47
2021/05/16 06:17:50;;;;;;;7.10;2.92;;;;;;;10.37;81.82;98923.16;5088031;28;20097;-48
2021/05/16 06:20:18;;;;;;;6.65;2.97;;;;;;;10.40;82.01;98921.59;5107429;28;20040;-50
2021/05/16 06:22:45;;;;;;;4.43;3.03;;;;;;;10.47;82.09;98929.94;5094547;28;20440;-49
2021/05/16 06:25:12;;;;;;;9.02;3.53;;;;;;;10.51;82.07;98921.66;5092789;28;20534;-51
2021/05/16 06:27:39;;;;;;;5.68;3.58;;;;;;;10.55;82.26;98922.44;5099643;28;20043;-47
2021/05/16 06:30:07;;;;;;;10.65;3.47;;;;;;;10.62;82.21;98925.22;5092736;28;20105;-52
2021/05/16 06:32:34;;;;;;;10.98;3.13;;;;;;;10.64;82.46;98928.41;5069597;28;20083;-48
2021/05/16 06:35:00;;;;;;;9.77;2.83;;;;;;;10.72;82.50;98927.25;5096619;28;20394;-48
2021/05/16 06:37:27;;;;;;;6.15;3.13;;;;;;;10.79;82.36;98924.50;5111061;28;20105;-48
2021/05/16 06:39:57;;;;;;;11.88;3.58;;;;;;;10.85;82.39;98923.75;5066351;28;20044;-48
2021/05/16 06:42:26;;;;;;;8.68;3.38;;;;;;;10.94;82.32;98928.91;5090664;28;20135;-47
2021/05/16 06:44:52;;;;;;;7.32;2.85;;;;;;;11.05;82.42;98924.19;5102956;28;20040;-52
2021/05/16 06:47:20;;;;;;;6.53;2.47;;;;;;;11.11;82.47;98925.38;5111582;28;20134;-49
2021/05/16 06:49:52;;;;;;;4.88;2.38;;;;;;;11.19;82.39;98918.69;5082849;28;20060;-50
2021/05/16 06:52:20;;;;;;;6.80;2.30;;;;;;;11.32;82.27;98921.84;5092712;28;20536;-53
2021/05/16 06:54:48;;;;;;;5.18;2.25;;;;;;;11.40;82.31;98921.47;5091570;28;20101;-51
2021/05/16 06:57:16;;;;;;;10.07;2.45;;;;;;;11.45;82.36;98932.16;5091160;28;20071;-52
2021/05/16 06:59:44;;;;;;;5.25;3.05;;;;;;;11.44;82.04;98929.78;5091603;28;20112;-51
2021/05/16 07:02:11;;;;;;;5.35;2.33;;;;;;;11.40;81.88;98935.34;5103088;28;20065;-47
2021/05/16 07:04:40;;;;;;;6.85;2.28;;;;;;;11.41;81.83;98925.03;5090679;28;20048;-52
2021/05/16 07:07:10;;;;;;;9.87;2.53;;;;;;;11.45;81.82;98937.72;5097953;28;20044;-52
2021/05/16 07:09:38;;;;;;;7.43;2.72;;;;;;;11.47;81.53;98929.78;5097860;28;20415;-48
2021/05/16 07:12:10;;;;;;;8.23;2.22;;;;;;;11.48;81.37;98936.13;5101560;28;20048;-47
2021/05/16 07:14:36;;;;;;;9.35;2.78;;;;;;;11.52;81.42;98934.13;5091625;28;20524;-50
2021/05/16 07:17:06;;;;;;;5.80;2.40;;;;;;;11.59;81.25;98940.50;5091753;28;20136;-50
2021/05/16 07:19:33;;;;;;;5.97;2.65;;;;;;;11.63;81.25;98938.50;5110928;28;20115;-54
2021/05/16 07:22:00;;;;;;;7.75;2.03;;;;;;;11.71;81.11;98942.09;5079581;28;20520;-51
2021/05/16 07:24:28;;;;;;;12.85;4.53;;;;;;;11.77;80.96;98937.75;5093817;28;20558;-52
2021/05/16 07:26:55;;;;;;;7.13;2.22;;;;;;;11.83;80.78;98949.22;5101350;28;20043;-48
2021/05/16 07:29:23;;;;;;;6.50;2.15;;;;;;;11.89;80.64;98939.31;5073656;28;20146;-49
2021/05/16 07:31:50;;;;;;;9.73;2.38;;;;;;;11.97;80.43;98943.66;5089820;28;20052;-50
2021/05/16 07:34:17;;;;;;;7.80;2.08;;;;;;;12.01;80.10;98936.13;5096318;28;20046;-52
2021/05/16 07:36:44;;;;;;;5.18;2.10;;;;;;;12.05;80.17;98946.03;5104984;28;20130;-50
2021/05/16 07:39:11;;;;;;;4.70;2.03;;;;;;;12.14;80.09;98945.63;5085139;28;20088;-53
2021/05/16 07:41:38;;;;;;;5.40;1.63;;;;;;;12.23;79.75;98944.00;5097100;28;20044;-50
2021/05/16 07:44:06;;;;;;;6.40;2.17;;;;;;;12.30;79.82;98947.97;5089619;28;20056;-50
2021/05/16 07:46:33;;;;;;;7.60;2.00;;;;;;;12.36;79.70;98938.84;5090127;28;20417;-50
2021/05/16 07:49:03;;;;;;;8.88;1.48;;;;;;;12.54;79.90;98939.56;5098380;28;20043;-51
2021/05/16 07:51:29;;;;;;;7.95;1.75;;;;;;;12.69;80.25;98943.88;5096555;28;20108;-52
2021/05/16 07:53:56;;;;;;;4.28;2.08;;;;;;;12.79;79.73;98945.81;5100748;28;20383;-54
2021/05/16 07:56:23;;;;;;;4.85;1.98;;;;;;;12.87;79.23;98948.56;5088787;28;20136;-54
2021/05/16 07:58:51;;;;;;;4.20;1.20;;;;;;;13.13;80.61;98942.50;5089693;28;20056;-52
2021/05/16 08:01:18;;;;;;;5.88;1.20;;;;;;;13.71;82.01;98941.69;5089463;28;20043;-50
2021/05/16 08:03:46;;;;;;;3.78;1.73;;;;;;;14.41;82.71;98951.38;5093305;28;20039;-51
2021/05/16 08:06:13;;;;;;;8.30;2.33;;;;;;;14.69;80.09;98944.72;5098175;28;20086;-53
2021/05/16 08:08:43;;;;;;;5.25;1.65;;;;;;;14.66;77.92;98951.13;5089816;28;20085;-51
2021/05/16 08:11:10;;;;;;;3.65;1.75;;;;;;;14.50;76.46;98948.91;5095837;28;20074;-54
2021/05/16 08:13:36;;;;;;;3.95;1.30;;;;;;;14.42;75.48;98952.97;5093738;28;20131;-50
2021/05/16 08:16:03;;;;;;;9.25;2.15;;;;;;;14.22;74.42;98954.72;5091524;28;20151;-50
2021/05/16 08:18:30;;;;;;;5.50;1.48;;;;;;;14.03;73.95;98948.56;5089995;28;20144;-53
2021/05/16 08:20:57;;;;;;;5.25;1.20;;;;;;;13.87;73.33;98950.31;5108869;28;20425;-53
2021/05/16 08:23:25;;;;;;;5.53;1.48;;;;;;;13.70;72.89;98954.00;5101722;28;20412;-50
2021/05/16 08:25:52;;;;;;;3.40;1.30;;;;;;;13.55;72.79;98949.78;5090430;28;20498;-50
2021/05/16 08:28:19;;;;;;;2.70;1.25;;;;;;;13.41;72.58;98951.44;5104410;28;20087;-51
2021/05/16 08:30:46;;;;;;;8.43;1.48;;;;;;;13.32;72.67;98958.66;5098726;28;20081;-54
2021/05/16 08:33:13;;;;;;;5.82;1.67;;;;;;;13.28;72.76;98957.88;5082202;28;20086;-54
2021/05/16 08:35:40;;;;;;;2.72;1.10;;;;;;;13.25;72.93;98959.50;5070861;28;20075;-49
2021/05/16 08:38:07;;;;;;;4.10;1.58;;;;;;;13.23;72.77;98958.31;5089790;28;20115;-54
2021/05/16 08:40:34;;;;;;;3.75;1.50;;;;;;;13.20;72.94;98962.69;5072058;28;20159;-53
2021/05/16 08:43:02;;;;;;;5.20;1.58;;;;;;;13.11;72.52;98956.00;5090052;28;20097;-50
2021/05/16 08:45:31;;;;;;;3.83;1.38;;;;;;;13.06;72.66;98961.94;5096820;28;20051;-52
2021/05/16 08:47:59;;;;;;;1.98;1.17;;;;;;;12.99;72.22;98967.53;5086355;28;20063;-50
2021/05/16 08:50:27;;;;;;;4.13;1.40;;;;;;;13.00;72.26;98958.03;5096180;28;20079;-51
2021/05/16 08:52:55;;;;;;;2.70;1.27;;;;;;;13.29;72.55;98962.25;5098163;28;20043;-53
2021/05/16 08:55:22;;;;;;;3.50;1.30;;;;;;;13.76;72.70;98950.41;5085073;28;20127;-54
2021/05/16 08:57:52;;;;;;;4.57;1.48;;;;;;;14.45;72.73;98963.28;5107056;28;20772;-52
2021/05/16 09:00:20;;;;;;;6.40;1.90;;;;;;;15.14;72.30;98971.22;5092291;28;20043;-55
2021/05/16 09:03:05;;;;;;;5.80;1.90;;;;;;;15.81;69.30;98967.44;5076600;28;20501;-54
2021/05/16 09:05:37;;;;;;;4.47;1.52;;;;;;;16.30;69.63;98969.41;5091766;28;20047;-54
2021/05/16 09:08:30;;;;;;;2.10;1.05;;;;;;;16.67;67.02;98965.53;5107045;28;20104;-54
2021/05/16 09:10:59;;;;;;;5.38;1.25;;;;;;;17.23;67.84;98963.56;5089400;28;20125;-53
2021/05/16 09:13:35;;;;;;;5.50;1.83;;;;;;;17.47;66.74;98967.78;5089044;28;20075;-51
2021/05/16 09:16:07;;;;;;;3.75;1.20;;;;;;;17.79;63.76;98966.31;5074012;28;20043;-53
2021/05/16 09:18:43;;;;;;;5.85;1.65;;;;;;;17.99;65.03;98964.19;5089267;28;20122;-54
2021/05/16 09:21:28;;;;;;;7.85;2.13;;;;;;;18.52;63.43;98955.22;5096503;28;20067;-57
2021/05/16 09:24:01;;;;;;;7.07;1.65;;;;;;;18.91;61.12;98961.75;5088432;28;20059;-57
2021/05/16 09:26:50;;;;;;;5.35;2.03;;;;;;;19.64;59.99;98964.38;5091813;28;20056;-57
2021/05/16 09:29:39;;;;;;;3.30;1.10;;;;;;;19.31;57.52;98968.56;5070223;28;20051;-57
2021/05/16 09:32:08;;;;;;;11.27;1.73;;;;;;;18.89;59.50;98975.44;5084978;28;20040;-57
2021/05/16 09:34:39;;;;;;;4.80;1.70;;;;;;;18.17;59.29;98972.94;5099756;28;20044;-56
2021/05/16 09:37:10;;;;;;;7.63;1.38;;;;;;;17.47;58.64;98978.97;5091069;28;20071;-50
2021/05/16 09:39:38;;;;;;;7.72;1.90;;;;;;;17.21;59.40;98976.41;5071918;28;20047;-50
2021/05/16 09:42:13;;;;;;;4.43;1.00;;;;;;;16.88;59.47;98975.50;5079470;28;20046;-54
2021/05/16 09:44:48;;;;;;;13.13;3.38;;;;;;;16.70;59.06;98970.28;5089166;28;20058;-52
2021/05/16 09:47:23;;;;;;;5.72;1.92;;;;;;;16.80;59.51;98974.06;5099533;28;20085;-52
2021/05/16 09:49:52;;;;;;;6.18;1.63;;;;;;;17.03;60.48;98971.19;5100164;28;20082;-52
2021/05/16 09:52:23;;;;;;;6.43;1.60;;;;;;;17.27;60.52;98972.66;5092631;28;20080;-54
2021/05/16 09:54:52;;;;;;;4.45;1.75;;;;;;;17.53;60.52;98977.28;5092842;28;20051;-54
2021/05/16 09:57:18;;;;;;;4.40;1.45;;;;;;;17.44;60.05;98979.09;5091773;28;20051;-51
2021/05/16 09:59:46;;;;;;;6.88;1.67;;;;;;;17.17;60.04;98982.06;5102415;28;20061;-53
2021/05/16 10:02:15;;;;;;;8.18;2.33;;;;;;;17.40;60.17;98979.16;5109638;28;20070;-53
2021/05/16 10:04:46;;;;;;;7.97;2.50;;;;;;;18.01;59.74;98972.94;5083751;28;20075;-56
2021/05/16 10:07:13;;;;;;;7.13;1.73;;;;;;;18.43;58.63;98971.06;5110243;28;20116;-49
2021/05/16 10:09:40;;;;;;;3.35;1.02;;;;;;;18.71;58.12;98971.13;5102818;28;20101;-50
2021/05/16 10:12:07;;;;;;;6.18;1.65;;;;;;;18.48;57.10;98973.38;5070783;28;20048;-51
2021/05/16 10:14:45;;;;;;;7.80;2.78;;;;;;;18.50;56.55;98976.50;5098997;28;20148;-55
2021/05/16 10:17:15;;;;;;;7.45;1.55;;;;;;;18.35;57.20;98990.06;5102165;28;20052;-52
2021/05/16 10:19:46;;;;;;;9.63;2.25;;;;;;;18.56;56.82;98981.13;5094302;28;20048;-52
2021/05/16 10:22:19;;;;;;;9.98;1.65;;;;;;;18.70;56.29;98980.75;5073868;28;20432;-54
2021/05/16 10:24:46;;;;;;;9.00;2.72;;;;;;;18.58;56.77;98992.72;5107969;28;20044;-53
2021/05/16 10:27:25;;;;;;;3.70;1.30;;;;;;;18.07;56.37;98994.41;5111886;28;20044;-53
2021/05/16 10:29:54;;;;;;;2.05;1.35;;;;;;;17.64;57.26;98994.63;5104919;28;20040;-52
2021/05/16 10:32:33;;;;;;;5.03;1.83;;;;;;;17.93;57.48;98989.13;5080234;28;20044;-50
2021/05/16 10:35:05;;;;;;;4.07;1.50;;;;;;;18.04;57.13;98988.88;5106551;28;20044;-49
2021/05/16 10:37:38;;;;;;;4.63;1.10;;;;;;;18.02;57.21;98988.53;5071870;28;20075;-57
2021/05/16 10:40:27;;;;;;;7.13;1.52;;;;;;;17.89;57.17;98991.25;5102238;28;20119;-52
2021/05/16 10:43:04;;;;;;;4.80;1.63;;;;;;;17.53;56.95;98988.47;5072463;28;20108;-51
2021/05/16 10:45:36;;;;;;;4.03;1.25;;;;;;;17.21;56.56;98993.94;5108331;28;20039;-49
2021/05/16 10:48:11;;;;;;;3.55;1.42;;;;;;;16.82;58.02;98988.38;5106028;28;20039;-48
2021/05/16 10:50:49;;;;;;;7.03;1.55;;;;;;;16.57;58.88;98993.69;5108605;28;20047;-50
2021/05/16 10:53:17;;;;;;;15.18;3.53;;;;;;;16.35;59.15;98994.03;5111584;28;20047;-50
2021/05/16 10:56:01;;;;;;;5.38;1.90;;;;;;;16.01;60.14;98993.44;5106408;28;20074;-48
2021/05/16 10:58:33;;;;;;;10.20;3.17;;;;;;;15.79;60.51;98990.19;5092695;28;20520;-46
2021/05/16 11:01:01;;;;;;;11.82;3.75;;;;;;;15.68;60.27;98999.94;5095016;28;20101;-49
2021/05/16 11:03:46;;;;;;;17.35;2.75;;;;;;;15.47;61.59;98997.44;5096291;28;20134;-46
2021/05/16 11:06:14;;;;;;;11.10;2.60;;;;;;;15.40;60.99;99000.31;5089605;28;20127;-46
2021/05/16 11:08:41;;;;;;;13.00;2.75;;;;;;;15.47;61.54;99001.03;5099482;28;20047;-51
2021/05/16 11:11:30;;;;;;;16.73;5.22;;;;;;;15.65;61.86;98997.97;5081353;28;20093;-46
2021/05/16 11:13:57;;;;;;;11.73;3.13;;;;;;;15.56;61.70;99001.31;5101159;28;20051;-47
2021/05/16 11:16:24;;;;;;;14.18;2.72;;;;;;;15.55;61.73;99007.31;5094797;28;20067;-47
2021/05/16 11:18:51;;;;;;;12.98;2.85;;;;;;;15.53;62.16;99007.72;5091413;28;20167;-48
2021/05/16 11:21:20;;;;;;;11.10;2.42;;;;;;;15.57;61.96;99010.44;5095573;28;20043;-48
2021/05/16 11:23:48;;;;;;;13.38;2.60;;;;;;;15.53;61.72;99013.31;5068921;28;20101;-46
2021/05/16 11:26:22;;;;;;;7.30;2.00;;;;;;;15.54;62.02;99016.91;5095094;28;20052;-46
2021/05/16 11:28:55;;;;;;;9.25;1.75;;;;;;;15.64;61.94;99015.94;5098965;28;20043;-53
2021/05/16 11:31:28;;;;;;;15.63;2.90;;;;;;;15.65;61.63;99018.31;5097020;28;20040;-57
2021/05/16 11:33:57;;;;;;;8.48;2.13;;;;;;;15.56;61.76;99020.06;5084456;28;20090;-54
2021/05/16 11:36:29;;;;;;;12.43;3.40;;;;;;;15.42;61.81;99018.22;5090427;28;20060;-50
2021/05/16 11:39:00;;;;;;;21.23;4.72;;;;;;;15.39;62.03;99026.63;5099616;28;20051;-55
2021/05/16 11:41:34;;;;;;;16.60;2.78;;;;;;;15.44;62.22;99017.78;5105045;28;20068;-52
2021/05/16 11:44:04;;;;;;;16.02;2.78;;;;;;;15.86;62.06;99022.75;5098995;28;20155;-51